createdAt,value
2018-11-25T00:00:54.089Z,1005.49
2018-11-25T00:01:54.084Z,1005.53
2018-11-25T00:02:54.081Z,1005.54
2018-11-25T00:03:54.087Z,1005.52
2018-11-25T00:04:54.101Z,1005.53
2018-11-25T00:05:54.091Z,1005.52
2018-11-25T00:06:54.128Z,1005.53
2018-11-25T00:07:54.075Z,1005.49
2018-11-25T00:08:54.091Z,1005.49
2018-11-25T00:09:54.072Z,1005.50
2018-11-25T00:10:54.073Z,1005.47
2018-11-25T00:11:54.073Z,1005.53
2018-11-25T00:12:54.091Z,1005.53
2018-11-25T00:13:54.060Z,1005.51
2018-11-25T00:14:54.069Z,1005.53
2018-11-25T00:15:54.080Z,1005.56
2018-11-25T00:16:54.072Z,1005.56
2018-11-25T00:17:54.057Z,1005.55
2018-11-25T00:18:54.057Z,1005.58
2018-11-25T00:19:54.059Z,1005.57
2018-11-25T00:20:54.111Z,1005.56
2018-11-25T00:21:54.079Z,1005.56
2018-11-25T00:22:54.059Z,1005.56
2018-11-25T00:23:54.060Z,1005.52
2018-11-25T00:24:54.036Z,1005.53
2018-11-25T00:25:54.056Z,1005.53
2018-11-25T00:26:54.042Z,1005.51
2018-11-25T00:27:54.052Z,1005.51
2018-11-25T00:28:54.051Z,1005.49
2018-11-25T00:29:54.037Z,1005.48
2018-11-25T00:30:54.031Z,1005.45
2018-11-25T00:31:54.034Z,1005.50
2018-11-25T00:32:54.026Z,1005.47
2018-11-25T00:33:54.039Z,1005.48
2018-11-25T00:34:54.049Z,1005.49
2018-11-25T00:35:54.038Z,1005.47
2018-11-25T00:36:54.051Z,1005.48
2018-11-25T00:37:54.015Z,1005.50
2018-11-25T00:38:54.009Z,1005.52
2018-11-25T00:39:54.016Z,1005.50
2018-11-25T00:40:54.010Z,1005.47
2018-11-25T00:41:54.038Z,1005.45
2018-11-25T00:42:54.010Z,1005.46
2018-11-25T00:43:53.998Z,1005.47
2018-11-25T00:44:54.008Z,1005.48
2018-11-25T00:45:54.001Z,1005.47
2018-11-25T00:46:54.008Z,1005.45
2018-11-25T00:47:54.007Z,1005.42
2018-11-25T00:48:53.991Z,1005.44
2018-11-25T00:49:53.996Z,1005.46
2018-11-25T00:50:54.001Z,1005.43
2018-11-25T00:51:53.988Z,1005.47
2018-11-25T00:52:54.019Z,1005.45
2018-11-25T00:53:53.982Z,1005.45
2018-11-25T00:54:53.981Z,1005.47
2018-11-25T00:55:53.979Z,1005.47
2018-11-25T00:56:53.979Z,1005.46
2018-11-25T00:57:53.984Z,1005.45
2018-11-25T00:58:53.986Z,1005.44
2018-11-25T00:59:53.984Z,1005.46
2018-11-25T01:00:53.994Z,1005.48
2018-11-25T01:01:53.972Z,1005.46
2018-11-25T01:02:53.982Z,1005.48
2018-11-25T01:03:53.996Z,1005.46
2018-11-25T01:04:53.965Z,1005.45
2018-11-25T01:05:53.953Z,1005.45
2018-11-25T01:06:53.953Z,1005.45
2018-11-25T01:07:53.951Z,1005.45
2018-11-25T01:08:53.950Z,1005.47
2018-11-25T01:09:53.956Z,1005.46
2018-11-25T01:10:53.961Z,1005.45
2018-11-25T01:11:53.962Z,1005.46
2018-11-25T01:12:53.935Z,1005.47
2018-11-25T01:13:53.947Z,1005.46
2018-11-25T01:14:53.935Z,1005.44
2018-11-25T01:15:53.943Z,1005.49
2018-11-25T01:16:53.937Z,1005.50
2018-11-25T01:17:53.930Z,1005.49
2018-11-25T01:18:53.932Z,1005.47
2018-11-25T01:19:53.931Z,1005.45
2018-11-25T01:20:53.926Z,1005.48
2018-11-25T01:21:54.000Z,1005.48
2018-11-25T01:22:53.936Z,1005.52
2018-11-25T01:23:53.937Z,1005.50
2018-11-25T01:24:53.918Z,1005.47
2018-11-25T01:25:53.902Z,1005.51
2018-11-25T01:26:53.916Z,1005.52
2018-11-25T01:27:53.920Z,1005.52
2018-11-25T01:28:53.919Z,1005.51
2018-11-25T01:29:53.907Z,1005.50
2018-11-25T01:30:53.907Z,1005.53
2018-11-25T01:31:53.895Z,1005.55
2018-11-25T01:32:53.897Z,1005.55
2018-11-25T01:33:53.942Z,1005.50
2018-11-25T01:35:00.870Z,1005.53
2018-11-25T01:35:53.890Z,1005.52
2018-11-25T01:36:53.897Z,1005.49
2018-11-25T01:37:53.885Z,1005.47
2018-11-25T01:38:53.905Z,1005.50
2018-11-25T01:39:53.884Z,1005.49
2018-11-25T01:40:53.886Z,1005.47
2018-11-25T01:41:53.876Z,1005.49
2018-11-25T01:42:53.879Z,1005.52
2018-11-25T01:43:53.900Z,1005.50
2018-11-25T01:44:53.882Z,1005.47
2018-11-25T01:45:53.941Z,1005.49
2018-11-25T01:46:53.878Z,1005.46
2018-11-25T01:47:53.866Z,1005.46
2018-11-25T01:48:53.867Z,1005.44
2018-11-25T01:49:53.868Z,1005.42
2018-11-25T01:50:53.856Z,1005.47
2018-11-25T01:51:53.861Z,1005.45
2018-11-25T01:52:53.867Z,1005.43
2018-11-25T01:53:53.860Z,1005.50
2018-11-25T01:54:53.862Z,1005.46
2018-11-25T01:55:53.859Z,1005.49
2018-11-25T01:56:53.848Z,1005.46
2018-11-25T01:57:53.868Z,1005.45
2018-11-25T01:58:53.844Z,1005.42
2018-11-25T01:59:53.849Z,1005.42
2018-11-25T02:00:53.837Z,1005.42
2018-11-25T02:01:53.824Z,1005.38
2018-11-25T02:02:53.830Z,1005.39
2018-11-25T02:03:53.835Z,1005.37
2018-11-25T02:04:53.826Z,1005.37
2018-11-25T02:05:53.825Z,1005.41
2018-11-25T02:06:53.837Z,1005.39
2018-11-25T02:07:53.838Z,1005.38
2018-11-25T02:08:53.826Z,1005.35
2018-11-25T02:09:53.831Z,1005.33
2018-11-25T02:10:53.810Z,1005.35
2018-11-25T02:11:53.808Z,1005.39
2018-11-25T02:12:53.811Z,1005.36
2018-11-25T02:13:53.801Z,1005.35
2018-11-25T02:14:53.806Z,1005.33
2018-11-25T02:15:53.804Z,1005.33
2018-11-25T02:16:53.813Z,1005.33
2018-11-25T02:17:53.797Z,1005.30
2018-11-25T02:18:53.808Z,1005.24
2018-11-25T02:19:53.800Z,1005.32
2018-11-25T02:20:53.805Z,1005.29
2018-11-25T02:21:53.800Z,1005.30
2018-11-25T02:22:53.793Z,1005.28
2018-11-25T02:23:53.779Z,1005.29
2018-11-25T02:24:53.790Z,1005.30
2018-11-25T02:25:53.786Z,1005.27
2018-11-25T02:26:53.774Z,1005.23
2018-11-25T02:27:53.775Z,1005.23
2018-11-25T02:28:53.803Z,1005.26
2018-11-25T02:29:55.630Z,1005.25
2018-11-25T02:30:53.776Z,1005.23
2018-11-25T02:31:53.770Z,1005.22
2018-11-25T02:32:53.767Z,1005.23
2018-11-25T02:33:53.774Z,1005.22
2018-11-25T02:34:53.756Z,1005.22
2018-11-25T02:35:53.767Z,1005.20
2018-11-25T02:36:53.753Z,1005.22
2018-11-25T02:37:53.758Z,1005.24
2018-11-25T02:38:53.769Z,1005.21
2018-11-25T02:39:53.768Z,1005.22
2018-11-25T02:40:53.750Z,1005.23
2018-11-25T02:41:53.736Z,1005.23
2018-11-25T02:42:53.748Z,1005.18
2018-11-25T02:43:53.744Z,1005.19
2018-11-25T02:44:53.732Z,1005.17
2018-11-25T02:45:53.758Z,1005.19
2018-11-25T02:46:53.731Z,1005.15
2018-11-25T02:47:53.736Z,1005.16
2018-11-25T02:48:53.743Z,1005.19
2018-11-25T02:49:53.734Z,1005.18
2018-11-25T02:50:53.731Z,1005.17
2018-11-25T02:51:53.717Z,1005.15
2018-11-25T02:52:53.718Z,1005.17
2018-11-25T02:53:53.721Z,1005.15
2018-11-25T02:54:53.732Z,1005.15
2018-11-25T02:55:53.728Z,1005.12
2018-11-25T02:56:53.711Z,1005.12
2018-11-25T02:57:53.731Z,1005.16
2018-11-25T02:58:53.701Z,1005.12
2018-11-25T02:59:53.709Z,1005.14
2018-11-25T03:00:53.714Z,1005.13
2018-11-25T03:01:53.714Z,1005.13
2018-11-25T03:02:53.700Z,1005.15
2018-11-25T03:03:53.733Z,1005.14
2018-11-25T03:04:53.698Z,1005.15
2018-11-25T03:05:53.696Z,1005.19
2018-11-25T03:06:53.693Z,1005.21
2018-11-25T03:07:53.681Z,1005.19
2018-11-25T03:08:53.686Z,1005.20
2018-11-25T03:09:53.683Z,1005.21
2018-11-25T03:10:53.671Z,1005.23
2018-11-25T03:11:53.671Z,1005.23
2018-11-25T03:12:53.687Z,1005.23
2018-11-25T03:13:53.673Z,1005.25
2018-11-25T03:14:53.668Z,1005.22
2018-11-25T03:15:53.669Z,1005.22
2018-11-25T03:16:53.666Z,1005.24
2018-11-25T03:17:53.679Z,1005.19
2018-11-25T03:18:53.677Z,1005.24
2018-11-25T03:19:53.675Z,1005.23
2018-11-25T03:20:53.658Z,1005.26
2018-11-25T03:21:53.662Z,1005.26
2018-11-25T03:22:53.683Z,1005.27
2018-11-25T03:23:53.655Z,1005.27
2018-11-25T03:24:53.646Z,1005.28
2018-11-25T03:25:53.656Z,1005.28
2018-11-25T03:26:53.649Z,1005.27
2018-11-25T03:27:53.650Z,1005.28
2018-11-25T03:28:53.652Z,1005.28
2018-11-25T03:29:53.641Z,1005.28
2018-11-25T03:30:53.638Z,1005.31
2018-11-25T03:31:53.642Z,1005.32
2018-11-25T03:32:53.636Z,1005.33
2018-11-25T03:33:53.633Z,1005.33
2018-11-25T03:34:53.622Z,1005.35
2018-11-25T03:35:53.630Z,1005.37
2018-11-25T03:36:53.622Z,1005.36
2018-11-25T03:37:53.627Z,1005.36
2018-11-25T03:38:53.618Z,1005.35
2018-11-25T03:39:53.626Z,1005.38
2018-11-25T03:40:53.609Z,1005.35
2018-11-25T03:41:53.626Z,1005.38
2018-11-25T03:42:53.601Z,1005.39
2018-11-25T03:43:53.607Z,1005.42
2018-11-25T03:44:53.607Z,1005.40
2018-11-25T03:45:53.598Z,1005.43
2018-11-25T03:46:53.593Z,1005.42
2018-11-25T03:47:53.607Z,1005.41
2018-11-25T03:48:53.605Z,1005.42
2018-11-25T03:49:53.600Z,1005.42
2018-11-25T03:50:53.597Z,1005.43
2018-11-25T03:51:53.584Z,1005.43
2018-11-25T03:52:53.601Z,1005.45
2018-11-25T03:53:53.602Z,1005.46
2018-11-25T03:54:53.600Z,1005.41
2018-11-25T03:55:53.577Z,1005.47
2018-11-25T03:56:53.579Z,1005.52
2018-11-25T03:57:53.566Z,1005.47
2018-11-25T03:58:53.576Z,1005.48
2018-11-25T03:59:53.563Z,1005.48
2018-11-25T04:00:53.585Z,1005.52
2018-11-25T04:01:53.577Z,1005.52
2018-11-25T04:02:53.600Z,1005.54
2018-11-25T04:03:53.563Z,1005.53
2018-11-25T04:04:53.579Z,1005.52
2018-11-25T04:05:53.569Z,1005.52
2018-11-25T04:06:53.566Z,1005.54
2018-11-25T04:07:53.556Z,1005.54
2018-11-25T04:08:53.542Z,1005.54
2018-11-25T04:09:53.545Z,1005.55
2018-11-25T04:10:53.564Z,1005.53
2018-11-25T04:11:53.549Z,1005.50
2018-11-25T04:12:53.546Z,1005.54
2018-11-25T04:13:53.544Z,1005.54
2018-11-25T04:14:53.562Z,1005.56
2018-11-25T04:15:53.547Z,1005.58
2018-11-25T04:16:53.545Z,1005.57
2018-11-25T04:17:53.553Z,1005.60
2018-11-25T04:18:53.590Z,1005.62
2018-11-25T04:19:53.523Z,1005.64
2018-11-25T04:20:53.525Z,1005.61
2018-11-25T04:21:53.531Z,1005.59
2018-11-25T04:22:53.528Z,1005.61
2018-11-25T04:23:53.519Z,1005.61
2018-11-25T04:24:53.508Z,1005.61
2018-11-25T04:25:53.533Z,1005.59
2018-11-25T04:26:53.523Z,1005.59
2018-11-25T04:27:53.532Z,1005.58
2018-11-25T04:28:53.506Z,1005.61
2018-11-25T04:29:53.515Z,1005.63
2018-11-25T04:30:53.500Z,1005.61
2018-11-25T04:31:53.493Z,1005.60
2018-11-25T04:32:53.513Z,1005.61
2018-11-25T04:33:53.504Z,1005.62
2018-11-25T04:34:53.498Z,1005.58
2018-11-25T04:35:53.502Z,1005.57
2018-11-25T04:36:53.501Z,1005.59
2018-11-25T04:37:53.499Z,1005.52
2018-11-25T04:38:53.523Z,1005.54
2018-11-25T04:39:53.496Z,1005.52
2018-11-25T04:40:53.491Z,1005.55
2018-11-25T04:41:53.491Z,1005.49
2018-11-25T04:42:53.479Z,1005.48
2018-11-25T04:43:53.474Z,1005.48
2018-11-25T04:44:53.478Z,1005.46
2018-11-25T04:45:53.470Z,1005.47
2018-11-25T04:46:53.475Z,1005.49
2018-11-25T04:47:53.480Z,1005.47
2018-11-25T04:48:53.479Z,1005.48
2018-11-25T04:49:53.452Z,1005.48
2018-11-25T04:50:53.461Z,1005.45
2018-11-25T04:51:53.469Z,1005.45
2018-11-25T04:52:53.456Z,1005.44
2018-11-25T04:53:53.451Z,1005.42
2018-11-25T04:54:53.455Z,1005.43
2018-11-25T04:55:53.448Z,1005.44
2018-11-25T04:56:53.450Z,1005.41
2018-11-25T04:57:53.443Z,1005.44
2018-11-25T04:58:53.441Z,1005.44
2018-11-25T04:59:53.458Z,1005.41
2018-11-25T05:00:53.446Z,1005.42
2018-11-25T05:01:53.427Z,1005.43
2018-11-25T05:02:53.436Z,1005.41
2018-11-25T05:03:53.446Z,1005.44
2018-11-25T05:04:53.439Z,1005.45
2018-11-25T05:05:53.433Z,1005.43
2018-11-25T05:06:53.435Z,1005.46
2018-11-25T05:07:53.419Z,1005.47
2018-11-25T05:08:53.424Z,1005.48
2018-11-25T05:09:53.445Z,1005.49
2018-11-25T05:10:53.441Z,1005.51
2018-11-25T05:11:53.414Z,1005.52
2018-11-25T05:12:53.407Z,1005.54
2018-11-25T05:13:53.403Z,1005.51
2018-11-25T05:14:53.400Z,1005.54
2018-11-25T05:15:53.401Z,1005.54
2018-11-25T05:16:53.413Z,1005.58
2018-11-25T05:17:53.400Z,1005.59
2018-11-25T05:18:53.396Z,1005.58
2018-11-25T05:19:53.391Z,1005.56
2018-11-25T05:20:53.393Z,1005.58
2018-11-25T05:21:53.388Z,1005.60
2018-11-25T05:22:53.384Z,1005.57
2018-11-25T05:23:53.387Z,1005.57
2018-11-25T05:24:53.374Z,1005.58
2018-11-25T05:25:53.400Z,1005.58
2018-11-25T05:26:53.379Z,1005.59
2018-11-25T05:27:53.366Z,1005.57
2018-11-25T05:28:53.387Z,1005.54
2018-11-25T05:29:53.360Z,1005.52
2018-11-25T05:30:53.373Z,1005.55
2018-11-25T05:31:53.378Z,1005.54
2018-11-25T05:32:53.366Z,1005.58
2018-11-25T05:33:53.358Z,1005.60
2018-11-25T05:34:53.359Z,1005.59
2018-11-25T05:35:53.351Z,1005.62
2018-11-25T05:36:53.353Z,1005.63
2018-11-25T05:37:53.362Z,1005.60
2018-11-25T05:38:53.392Z,1005.65
2018-11-25T05:39:53.344Z,1005.63
2018-11-25T05:40:53.339Z,1005.60
2018-11-25T05:41:53.342Z,1005.61
2018-11-25T05:42:53.349Z,1005.66
2018-11-25T05:43:53.352Z,1005.63
2018-11-25T05:44:53.337Z,1005.65
2018-11-25T05:45:53.339Z,1005.63
2018-11-25T05:46:53.325Z,1005.63
2018-11-25T05:47:53.336Z,1005.61
2018-11-25T05:48:53.339Z,1005.60
2018-11-25T05:49:53.331Z,1005.58
2018-11-25T05:50:53.323Z,1005.60
2018-11-25T05:51:53.329Z,1005.60
2018-11-25T05:52:53.328Z,1005.61
2018-11-25T05:53:53.324Z,1005.61
2018-11-25T05:54:53.338Z,1005.63
2018-11-25T05:55:53.318Z,1005.64
2018-11-25T05:56:53.307Z,1005.66
2018-11-25T05:57:53.306Z,1005.64
2018-11-25T05:58:53.300Z,1005.68
2018-11-25T05:59:53.303Z,1005.68
2018-11-25T06:00:53.315Z,1005.68
2018-11-25T06:01:53.312Z,1005.68
2018-11-25T06:02:53.318Z,1005.67
2018-11-25T06:03:53.287Z,1005.69
2018-11-25T06:04:53.299Z,1005.68
2018-11-25T06:05:53.290Z,1005.68
2018-11-25T06:06:53.296Z,1005.68
2018-11-25T06:07:53.293Z,1005.67
2018-11-25T06:08:53.284Z,1005.70
2018-11-25T06:09:53.300Z,1005.68
2018-11-25T06:10:53.289Z,1005.70
2018-11-25T06:11:53.285Z,1005.73
2018-11-25T06:12:53.283Z,1005.68
2018-11-25T06:13:53.284Z,1005.68
2018-11-25T06:14:53.277Z,1005.70
2018-11-25T06:15:53.263Z,1005.71
2018-11-25T06:16:54.350Z,1005.71
2018-11-25T06:17:53.256Z,1005.71
2018-11-25T06:18:53.267Z,1005.71
2018-11-25T06:19:53.259Z,1005.69
2018-11-25T06:20:53.269Z,1005.72
2018-11-25T06:21:53.266Z,1005.73
2018-11-25T06:22:53.268Z,1005.75
2018-11-25T06:23:53.252Z,1005.77
2018-11-25T06:24:53.246Z,1005.76
2018-11-25T06:25:53.258Z,1005.76
2018-11-25T06:26:53.249Z,1005.73
2018-11-25T06:27:53.259Z,1005.76
2018-11-25T06:28:53.238Z,1005.75
2018-11-25T06:29:53.230Z,1005.77
2018-11-25T06:30:53.227Z,1005.75
2018-11-25T06:31:53.231Z,1005.76
2018-11-25T06:32:53.230Z,1005.78
2018-11-25T06:33:53.229Z,1005.78
2018-11-25T06:34:53.246Z,1005.81
2018-11-25T06:35:53.218Z,1005.76
2018-11-25T06:36:53.225Z,1005.77
2018-11-25T06:37:53.209Z,1005.75
2018-11-25T06:38:53.224Z,1005.76
2018-11-25T06:39:53.214Z,1005.77
2018-11-25T06:40:53.203Z,1005.73
2018-11-25T06:41:53.213Z,1005.72
2018-11-25T06:42:53.210Z,1005.73
2018-11-25T06:43:53.470Z,1005.73
2018-11-25T06:44:53.199Z,1005.72
2018-11-25T06:45:53.206Z,1005.72
2018-11-25T06:46:53.190Z,1005.75
2018-11-25T06:47:53.192Z,1005.74
2018-11-25T06:48:54.989Z,1005.75
2018-11-25T06:49:53.197Z,1005.76
2018-11-25T06:50:53.191Z,1005.75
2018-11-25T06:51:53.189Z,1005.73
2018-11-25T06:52:53.191Z,1005.75
2018-11-25T06:53:53.198Z,1005.72
2018-11-25T06:54:53.172Z,1005.76
2018-11-25T06:55:53.182Z,1005.83
2018-11-25T06:56:53.184Z,1005.82
2018-11-25T06:57:53.165Z,1005.80
2018-11-25T06:58:53.173Z,1005.81
2018-11-25T06:59:53.170Z,1005.84
2018-11-25T07:00:53.178Z,1005.84
2018-11-25T07:01:53.159Z,1005.87
2018-11-25T07:02:53.165Z,1005.85
2018-11-25T07:03:53.157Z,1005.83
2018-11-25T07:04:53.152Z,1005.83
2018-11-25T07:05:53.170Z,1005.84
2018-11-25T07:06:53.152Z,1005.79
2018-11-25T07:07:53.150Z,1005.78
2018-11-25T07:08:53.144Z,1005.77
2018-11-25T07:09:53.164Z,1005.79
2018-11-25T07:10:53.146Z,1005.77
2018-11-25T07:11:53.142Z,1005.80
2018-11-25T07:12:53.144Z,1005.75
2018-11-25T07:13:53.154Z,1005.76
2018-11-25T07:14:53.139Z,1005.76
2018-11-25T07:15:53.131Z,1005.78
2018-11-25T07:16:53.129Z,1005.78
2018-11-25T07:17:53.151Z,1005.83
2018-11-25T07:18:53.139Z,1005.83
2018-11-25T07:19:53.133Z,1005.85
2018-11-25T07:20:53.127Z,1005.93
2018-11-25T07:21:53.118Z,1005.96
2018-11-25T07:22:54.221Z,1005.99
2018-11-25T07:23:53.120Z,1006.00
2018-11-25T07:24:53.137Z,1006.03
2018-11-25T07:25:53.133Z,1006.08
2018-11-25T07:26:53.106Z,1006.10
2018-11-25T07:27:53.118Z,1006.12
2018-11-25T07:28:53.103Z,1006.16
2018-11-25T07:29:53.109Z,1006.20
2018-11-25T07:30:53.094Z,1006.16
2018-11-25T07:31:53.086Z,1006.15
2018-11-25T07:32:53.102Z,1006.17
2018-11-25T07:33:53.097Z,1006.17
2018-11-25T07:34:53.097Z,1006.13
2018-11-25T07:35:53.100Z,1006.12
2018-11-25T07:36:53.091Z,1006.16
2018-11-25T07:37:53.073Z,1006.11
2018-11-25T07:38:53.091Z,1006.12
2018-11-25T07:39:53.085Z,1006.09
2018-11-25T07:40:53.092Z,1006.11
2018-11-25T07:41:53.066Z,1006.14
2018-11-25T07:42:53.075Z,1006.16
2018-11-25T07:43:53.076Z,1006.14
2018-11-25T07:44:53.076Z,1006.09
2018-11-25T07:45:53.056Z,1006.16
2018-11-25T07:46:53.063Z,1006.15
2018-11-25T07:47:53.069Z,1006.18
2018-11-25T07:48:53.057Z,1006.12
2018-11-25T07:49:53.060Z,1006.09
2018-11-25T07:50:53.064Z,1006.06
2018-11-25T07:51:53.050Z,1006.11
2018-11-25T07:52:53.080Z,1006.08
2018-11-25T07:53:53.054Z,1006.06
2018-11-25T07:54:53.039Z,1006.04
2018-11-25T07:55:53.052Z,1006.06
2018-11-25T07:56:53.039Z,1006.06
2018-11-25T07:57:53.031Z,1006.07
2018-11-25T07:58:53.044Z,1006.07
2018-11-25T07:59:53.046Z,1006.10
2018-11-25T08:00:53.063Z,1006.10
2018-11-25T08:01:53.034Z,1006.11
2018-11-25T08:02:53.046Z,1006.12
2018-11-25T08:03:53.038Z,1006.14
2018-11-25T08:04:53.026Z,1006.15
2018-11-25T08:05:53.030Z,1006.15
2018-11-25T08:06:53.014Z,1006.12
2018-11-25T08:07:53.019Z,1006.12
2018-11-25T08:08:53.019Z,1006.06
2018-11-25T08:09:53.018Z,1006.07
2018-11-25T08:10:53.024Z,1006.07
2018-11-25T08:11:53.026Z,1006.01
2018-11-25T08:12:53.033Z,1006.04
2018-11-25T08:13:52.998Z,1005.99
2018-11-25T08:14:53.002Z,1006.06
2018-11-25T08:15:53.005Z,1006.06
2018-11-25T08:16:53.001Z,1006.08
2018-11-25T08:17:52.991Z,1006.10
2018-11-25T08:18:53.000Z,1006.11
2018-11-25T08:19:52.999Z,1006.14
2018-11-25T08:20:52.988Z,1006.12
2018-11-25T08:21:52.991Z,1006.13
2018-11-25T08:22:52.980Z,1006.14
2018-11-25T08:23:52.999Z,1006.18
2018-11-25T08:24:52.980Z,1006.17
2018-11-25T08:25:52.973Z,1006.15
2018-11-25T08:26:52.977Z,1006.18
2018-11-25T08:27:52.984Z,1006.16
2018-11-25T08:28:52.971Z,1006.16
2018-11-25T08:29:52.959Z,1006.13
2018-11-25T08:30:52.991Z,1006.17
2018-11-25T08:31:52.963Z,1006.13
2018-11-25T08:32:52.959Z,1006.12
2018-11-25T08:33:52.971Z,1006.12
2018-11-25T08:34:52.970Z,1006.09
2018-11-25T08:35:52.972Z,1006.09
2018-11-25T08:36:52.982Z,1006.05
2018-11-25T08:37:52.954Z,1006.04
2018-11-25T08:38:52.944Z,1006.01
2018-11-25T08:39:52.946Z,1005.98
2018-11-25T08:40:52.959Z,1005.97
2018-11-25T08:41:52.944Z,1005.95
2018-11-25T08:42:52.950Z,1005.94
2018-11-25T08:43:52.957Z,1005.93
2018-11-25T08:44:54.047Z,1005.93
2018-11-25T08:45:52.942Z,1005.92
2018-11-25T08:46:52.947Z,1005.85
2018-11-25T08:47:52.955Z,1005.83
2018-11-25T08:48:52.926Z,1005.85
2018-11-25T08:49:52.941Z,1005.86
2018-11-25T08:50:52.923Z,1005.84
2018-11-25T08:51:52.923Z,1005.80
2018-11-25T08:52:52.932Z,1005.86
2018-11-25T08:53:52.921Z,1005.85
2018-11-25T08:54:52.923Z,1005.83
2018-11-25T08:55:52.937Z,1005.82
2018-11-25T08:56:52.908Z,1005.79
2018-11-25T08:57:52.916Z,1005.84
2018-11-25T08:58:52.903Z,1005.83
2018-11-25T08:59:52.911Z,1005.83
2018-11-25T09:00:52.910Z,1005.84
2018-11-25T09:01:52.895Z,1005.83
2018-11-25T09:02:52.898Z,1005.82
2018-11-25T09:03:52.897Z,1005.81
2018-11-25T09:04:52.902Z,1005.80
2018-11-25T09:05:52.908Z,1005.81
2018-11-25T09:06:52.890Z,1005.85
2018-11-25T09:07:52.895Z,1005.81
2018-11-25T09:08:52.892Z,1005.84
2018-11-25T09:09:52.888Z,1005.88
2018-11-25T09:10:52.890Z,1005.86
2018-11-25T09:11:52.880Z,1005.88
2018-11-25T09:12:55.699Z,1005.88
2018-11-25T09:13:52.874Z,1005.91
2018-11-25T09:14:52.876Z,1005.90
2018-11-25T09:15:52.881Z,1005.92
2018-11-25T09:16:52.888Z,1005.92
2018-11-25T09:17:52.900Z,1005.99
2018-11-25T09:18:52.860Z,1006.00
2018-11-25T09:19:52.855Z,1006.02
2018-11-25T09:20:52.858Z,1006.05
2018-11-25T09:21:52.879Z,1006.08
2018-11-25T09:22:52.867Z,1006.15
2018-11-25T09:23:52.850Z,1006.18
2018-11-25T09:24:52.848Z,1006.18
2018-11-25T09:25:52.853Z,1006.24
2018-11-25T09:26:52.869Z,1006.24
2018-11-25T09:27:52.882Z,1006.26
2018-11-25T09:28:52.853Z,1006.25
2018-11-25T09:29:52.855Z,1006.24
2018-11-25T09:30:52.847Z,1006.22
2018-11-25T09:31:55.698Z,1006.23
2018-11-25T09:32:52.846Z,1006.25
2018-11-25T09:33:52.823Z,1006.26
2018-11-25T09:34:52.833Z,1006.29
2018-11-25T09:35:52.836Z,1006.31
2018-11-25T09:36:52.819Z,1006.29
2018-11-25T09:37:52.827Z,1006.29
2018-11-25T09:38:52.823Z,1006.27
2018-11-25T09:39:52.832Z,1006.28
2018-11-25T09:40:59.207Z,1006.24
2018-11-25T09:41:52.825Z,1006.24
2018-11-25T09:42:52.813Z,1006.23
2018-11-25T09:43:52.811Z,1006.23
2018-11-25T09:44:52.812Z,1006.26
2018-11-25T09:45:52.833Z,1006.26
2018-11-25T09:46:52.816Z,1006.23
2018-11-25T09:47:52.814Z,1006.22
2018-11-25T09:48:52.801Z,1006.17
2018-11-25T09:49:52.798Z,1006.18
2018-11-25T09:50:52.800Z,1006.12
2018-11-25T09:51:52.808Z,1006.13
2018-11-25T09:52:52.804Z,1006.13
2018-11-25T09:53:52.789Z,1006.13
2018-11-25T09:54:52.803Z,1006.11
2018-11-25T09:55:52.788Z,1006.15
2018-11-25T09:56:52.790Z,1006.14
2018-11-25T09:57:52.794Z,1006.13
2018-11-25T09:58:52.779Z,1006.16
2018-11-25T09:59:52.787Z,1006.19
2018-11-25T10:00:52.788Z,1006.18
2018-11-25T10:01:52.793Z,1006.25
2018-11-25T10:02:52.791Z,1006.19
2018-11-25T10:03:52.774Z,1006.24
2018-11-25T10:04:52.780Z,1006.20
2018-11-25T10:05:52.781Z,1006.20
2018-11-25T10:06:52.765Z,1006.21
2018-11-25T10:07:52.805Z,1006.22
2018-11-25T10:08:52.784Z,1006.19
2018-11-25T10:09:52.772Z,1006.17
2018-11-25T10:10:52.859Z,1006.15
2018-11-25T10:11:52.765Z,1006.07
2018-11-25T10:12:52.772Z,1006.10
2018-11-25T10:13:52.774Z,1006.05
2018-11-25T10:14:52.756Z,1006.04
2018-11-25T10:15:52.762Z,1006.05
2018-11-25T10:16:52.747Z,1006.03
2018-11-25T10:17:59.285Z,1006.03
2018-11-25T10:18:52.749Z,1006.03
2018-11-25T10:19:52.739Z,1006.09
2018-11-25T10:20:52.763Z,1006.06
2018-11-25T10:21:52.755Z,1006.04
2018-11-25T10:22:52.751Z,1006.06
2018-11-25T10:23:52.743Z,1006.09
2018-11-25T10:24:52.741Z,1006.09
2018-11-25T10:25:52.736Z,1006.09
2018-11-25T10:26:52.724Z,1006.10
2018-11-25T10:27:52.746Z,1006.12
2018-11-25T10:28:52.743Z,1006.11
2018-11-25T10:29:52.727Z,1006.11
2018-11-25T10:30:52.715Z,1006.10
2018-11-25T10:31:52.733Z,1006.10
2018-11-25T10:32:52.732Z,1006.11
2018-11-25T10:33:52.744Z,1006.06
2018-11-25T10:34:52.706Z,1005.99
2018-11-25T10:35:52.716Z,1006.04
2018-11-25T10:36:52.721Z,1006.05
2018-11-25T10:37:52.716Z,1006.02
2018-11-25T10:38:52.732Z,1006.01
2018-11-25T10:39:52.763Z,1006.02
2018-11-25T10:40:52.709Z,1006.01
2018-11-25T10:41:52.701Z,1006.05
2018-11-25T10:42:52.712Z,1006.02
2018-11-25T10:43:52.704Z,1006.04
2018-11-25T10:44:52.697Z,1006.02
2018-11-25T10:45:52.711Z,1006.03
2018-11-25T10:46:52.719Z,1006.00
2018-11-25T10:47:52.692Z,1006.02
2018-11-25T10:48:52.691Z,1006.03
2018-11-25T10:49:52.689Z,1006.06
2018-11-25T10:50:52.695Z,1006.03
2018-11-25T10:51:52.699Z,1006.01
2018-11-25T10:52:52.704Z,1006.00
2018-11-25T10:53:52.678Z,1005.98
2018-11-25T10:54:52.679Z,1005.97
2018-11-25T10:55:52.671Z,1005.94
2018-11-25T10:56:52.683Z,1005.93
2018-11-25T10:57:52.682Z,1005.93
2018-11-25T10:58:52.698Z,1005.94
2018-11-25T10:59:52.687Z,1005.92
2018-11-25T11:00:52.686Z,1005.90
2018-11-25T11:01:52.668Z,1005.90
2018-11-25T11:02:52.658Z,1005.87
2018-11-25T11:03:52.661Z,1005.90
2018-11-25T11:04:52.665Z,1005.92
2018-11-25T11:05:52.664Z,1005.90
2018-11-25T11:06:52.647Z,1005.88
2018-11-25T11:07:52.656Z,1005.88
2018-11-25T11:08:52.657Z,1005.88
2018-11-25T11:09:52.667Z,1005.83
2018-11-25T11:10:52.680Z,1005.85
2018-11-25T11:11:52.637Z,1005.87
2018-11-25T11:12:52.647Z,1005.85
2018-11-25T11:13:52.640Z,1005.88
2018-11-25T11:14:52.650Z,1005.89
2018-11-25T11:15:52.646Z,1005.93
2018-11-25T11:16:54.009Z,1005.89
2018-11-25T11:17:52.642Z,1005.88
2018-11-25T11:18:52.644Z,1005.90
2018-11-25T11:19:52.634Z,1005.87
2018-11-25T11:20:52.623Z,1005.90
2018-11-25T11:21:52.632Z,1005.91
2018-11-25T11:22:52.638Z,1005.91
2018-11-25T11:23:52.617Z,1005.89
2018-11-25T11:24:52.617Z,1005.88
2018-11-25T11:25:52.621Z,1005.91
2018-11-25T11:26:52.619Z,1005.88
2018-11-25T11:27:52.622Z,1005.91
2018-11-25T11:28:52.617Z,1005.90
2018-11-25T11:29:52.626Z,1005.87
2018-11-25T11:30:52.630Z,1005.88
2018-11-25T11:31:52.612Z,1005.94
2018-11-25T11:32:52.609Z,1005.89
2018-11-25T11:33:52.602Z,1005.89
2018-11-25T11:34:52.607Z,1005.89
2018-11-25T11:35:52.591Z,1005.91
2018-11-25T11:36:52.633Z,1005.91
2018-11-25T11:37:52.593Z,1005.86
2018-11-25T11:38:52.593Z,1005.89
2018-11-25T11:39:52.589Z,1005.89
2018-11-25T11:40:52.595Z,1005.93
2018-11-25T11:41:52.602Z,1005.93
2018-11-25T11:42:52.599Z,1005.94
2018-11-25T11:43:52.583Z,1005.95
2018-11-25T11:44:52.616Z,1005.94
2018-11-25T11:45:52.590Z,1005.98
2018-11-25T11:46:52.589Z,1005.96
2018-11-25T11:47:52.585Z,1006.00
2018-11-25T11:48:52.576Z,1005.99
2018-11-25T11:49:52.573Z,1005.99
2018-11-25T11:50:52.562Z,1006.01
2018-11-25T11:51:52.576Z,1005.97
2018-11-25T11:52:52.581Z,1006.04
2018-11-25T11:53:52.593Z,1005.98
2018-11-25T11:54:52.564Z,1005.98
2018-11-25T11:55:52.556Z,1005.99
2018-11-25T11:56:52.560Z,1006.02
2018-11-25T11:57:52.558Z,1006.00
2018-11-25T11:58:52.565Z,1005.96
2018-11-25T11:59:52.569Z,1005.99
2018-11-25T12:00:52.544Z,1006.00
2018-11-25T12:01:52.563Z,1006.00
2018-11-25T12:02:52.555Z,1005.96
2018-11-25T12:03:52.540Z,1005.99
2018-11-25T12:04:52.545Z,1005.98
2018-11-25T12:05:52.559Z,1005.97